Terminal Aerodrome Forecast
Issued by NWS

Home | Current Version | Previous Version | Text Only | Print | Product List | Glossary On
Versions: 1 2 3 4 5 6 7 8 9 10 11 12 13 14 15 16 17 18 19 20 21 22
000
FTUS46 KLOX 230500 RRA
TAFPRB
TAF
KPRB 230542Z 2306/2406 30010KT P6SM SKC
     FM230900 VRB03KT P6SM SKC
     FM232300 21010KT P6SM SKC
     FM240300 29010KT P6SM SKC=

USA.gov is the U.S. government's official web portal to all federal, state and local government web resources and services.